Ana Sayfa
METAR-TAF:

METAR-TAF

Havaalanları :

Haikou Meilan Uluslararası Havalimanı

Haikou, Çin

Enlem: 19-56-05N, Boylam: 110-27-32E, yükseklik: 23 m

Güncel hava durumu gözlemi

Rapor saat 12:00 UTC de 53 dakika önce yapıldı.
Rüzgar doğu/kuzeydoğudan 10 kt
Sıcaklık 21°C
Nem 88%
Basınç 1019 hPa
Görüş mesafesi: 7000 m
1000 ft yükseklikte parçalı bulutlu
3300 ft yükseklikte parçalı çok bulutlu

METAR: ZJHK 191200Z 07005MPS 7000 SCT010 BKN033 21/19 Q1019 NOSIG

Saat: 20:53 (12:53 UTC)

Tahmin

Rapor saat 09:07 UTC de 3 saat ve 46 dakika önce yapıldı.
Ayın 19'si saat 12 UTC'den ayın 20'si saat 12 UTC'ye kadar geçerli Tahmin
Rüzgar doğu/kuzeydoğudan 8 kt
Görüş mesafesi: 5000 m
1500 ft yükseklikte parçalı çok bulutlu
3300 ft yükseklikte parçalı çok bulutlu
Pus

TAF: ZJHK 190907Z 1912/2012 07004MPS 5000 BR BKN015 BKN033 TX26/2006Z TN18/1921Z

4.000'den fazla havaalanı için hava durumu gözlemleri ve tahminleri (METAR ve TAF raporları).

Kullanılabilir istasyonlar harita üzerinde sarı ve kırmızı noktalarla gösterilir.

İstasyonun adını görmek için fareyi noktanın üzerinde gezdirin.

Sonrasında hava gözlem ve tahminlerini görmek için tıklayın.

Haritayı değiştirmek için: yaklaştırmak için siyah artı işaretli yeşil düğmeye ve uzaklaştırmak için de eksi işaretli düğmeye hızla tıklayın; bitişik haritalar için yeşil okları kullanın.


METAR-TAF: